Terminal Aerodrome Forecast
Issued by NWS

Current Version | Previous Version | Text Only | Print | Product List | Glossary On
Versions: 1 2 3 4 5 6 7 8 9 10 11 12 13 14 15 16 17 18 19 20 21 22 23 24 25
513
FTUS43 KICT 250520
TAFRSL
TAF
KRSL 250520Z 2506/2606 25006KT P6SM FEW250
     FM251600 21006KT P6SM BKN200
     FM252300 18006KT P6SM FEW250=

USA.gov is the U.S. government's official web portal to all federal, state and local government web resources and services.